Latest Weather Observations for Mount Ginini

IDN60801

Issued at 8:35 pm EST Monday 21 April 2014 (issued every 30 minutes, with the page automatically refreshed every 10 minutes)

About weather observations | Map of weather stations | Latest weather observations for NSW | Other Formats
Station Details ID: 070349 Name: MOUNT GININI AWS Lat: -35.53 Lon: 148.77 Height: 1760.0 m
Data from the previous 72 hours. | See also: Recent months at Mount Ginini
Date/Time
EST
Temp
°C
App
Temp
°C
Dew
Point
Rel
Hum
%
Delta-T
°C
Wind Press
QNH
hPa
Press
MSL
hPa
Rain
since 9 am
mm
Dir
 
Spd
km/h
Gust
km/h
Spd
kts
Gust
kts
21/08:30pm 7.7 3.3 -5.7 38 5.1 WNW 9 15 5 8 - - 0.0
21/08:00pm 7.6 3.2 -5.8 38 5.1 WNW 9 15 5 8 - - 0.0
21/07:30pm 7.3 3.0 -5.1 41 4.8 WNW 9 17 5 9 - - 0.0
21/07:00pm 7.2 2.6 -4.2 44 4.5 WNW 11 13 6 7 - - 0.0
21/06:30pm 6.1 3.1 5.8 98 0.1 WNW 11 15 6 8 - - 0.0
21/06:00pm 6.2 3.2 5.8 97 0.2 WNW 11 15 6 8 - - 0.0
21/05:30pm 6.7 4.1 6.1 96 0.3 WNW 9 13 5 7 - - 0.0
21/05:00pm 7.7 5.3 6.8 94 0.5 WNW 9 15 5 8 - - 0.0
21/04:30pm 9.5 7.0 8.4 93 0.6 WNW 11 17 6 9 - - 0.0
21/04:00pm 10.3 8.2 6.8 79 1.8 WNW 7 15 4 8 - - 0.0
21/03:30pm 10.7 7.8 6.5 75 2.2 WNW 11 19 6 10 - - 0.0
21/03:00pm 10.8 7.7 5.6 70 2.7 WNW 11 20 6 11 - - 0.0
21/02:30pm 10.8 8.4 5.1 68 2.9 WNW 7 17 4 9 - - 0.0
21/02:00pm 10.4 7.5 4.5 67 2.9 WNW 9 15 5 8 - - 0.0
21/01:30pm 11.1 8.6 3.9 61 3.6 WNW 6 13 3 7 - - 0.0
21/01:00pm 11.1 8.6 3.9 61 3.6 WNW 6 11 3 6 - - 0.0
21/12:30pm 10.4 7.9 4.5 67 2.9 NNW 7 17 4 9 - - 0.0
21/12:00pm 10.3 7.8 4.9 69 2.7 N 7 15 4 8 - - 0.0
21/11:30am 10.4 9.1 6.0 74 2.3 ENE 2 7 1 4 - - 0.0
21/11:00am 9.4 7.5 4.8 73 2.3 E 4 7 2 4 - - 0.0
21/10:30am 9.9 7.9 4.5 69 2.7 NE 4 9 2 5 - - 0.0
21/10:00am 10.6 9.2 5.4 70 2.6 E 2 6 1 3 - - 0.0
21/09:30am 9.6 6.7 -4.4 37 5.7 WNW 2 6 1 3 - - 0.0
21/09:00am 8.1 6.1 4.5 78 1.8 NNW 4 7 2 4 - - 0.0
21/08:30am 5.3 2.9 4.4 94 0.4 ENE 6 9 3 5 - - 0.0
21/08:00am 5.1 3.5 4.4 95 0.3 E 2 6 1 3 - - 0.0
21/07:30am 2.9 0.1 2.3 96 0.3 NE 6 9 3 5 - - 0.0
21/07:00am 1.9 -1.6 1.0 94 0.4 ENE 9 13 5 7 - - 0.0
21/06:30am 1.5 -1.9 -0.6 86 0.9 ESE 7 13 4 7 - - 0.0
21/06:00am 5.5 1.0 -11.5 28 5.8 SSW 7 9 4 5 - - 0.0
21/05:30am 4.8 0.6 -10.5 32 5.3 WSW 6 9 3 5 - - 0.0
21/05:00am 4.2 -0.3 -11.0 32 5.1 W 7 9 4 5 - - 0.0
21/04:30am 3.9 -0.1 -7.8 42 4.3 WNW 6 9 3 5 - - 0.0
21/04:00am 4.1 0.2 -7.0 44 4.0 NW 6 9 3 5 - - 0.0
21/03:30am 2.8 0.0 2.2 96 0.3 N 6 11 3 6 - - 0.0
21/03:00am 1.1 -2.1 0.8 98 0.1 E 7 11 4 6 - - 0.0
21/02:30am 1.4 -2.1 1.1 98 0.1 E 9 13 5 7 - - 0.0
21/02:00am 1.7 -1.8 1.4 98 0.1 ESE 9 15 5 8 - - 0.0
21/01:30am 1.9 -2.3 1.6 98 0.1 E 13 19 7 10 - - 0.0
21/01:00am 1.9 -2.3 1.5 97 0.2 E 13 19 7 10 - - 0.0
21/12:30am 2.0 -2.6 1.6 97 0.2 E 15 19 8 10 - - 0.0
21/12:00am 1.7 -2.9 1.3 97 0.2 E 15 20 8 11 - - 0.0
 
Date/Time
EST
Temp
°C
App
Temp
°C
Dew
Point
Rel
Hum
%
Delta-T
°C
Wind Press
QNH
hPa
Press
MSL
hPa
Rain
since 9 am
mm
Dir
 
Spd
km/h
Gust
km/h
Spd
kts
Gust
kts
20/11:30pm 1.7 -3.3 1.1 96 0.3 E 17 20 9 11 - - 0.0
20/11:00pm 1.7 -3.0 1.0 95 0.3 E 15 19 8 10 - - 0.0
20/10:30pm 1.7 -2.6 1.0 95 0.3 E 13 19 7 10 - - 0.0
20/10:00pm 1.8 -2.1 1.1 95 0.3 E 11 15 6 8 - - 0.0
20/09:30pm 1.8 -2.1 1.1 95 0.3 E 11 15 6 8 - - 0.0
20/09:00pm -0.2 -3.6 -0.6 97 0.1 S 7 11 4 6 - - 0.0
20/08:30pm 0.0 -5.7 -0.4 97 0.2 SSW 19 28 10 15 - - 0.0
20/08:00pm 0.0 -6.2 -0.4 97 0.2 SW 22 32 12 17 - - 0.0
20/07:30pm 0.5 -6.0 0.1 97 0.2 SW 24 33 13 18 - - 0.0
20/07:00pm 0.7 -5.0 0.3 97 0.2 SW 20 30 11 16 - - 0.0
20/06:30pm 1.1 -4.6 0.5 96 0.3 SW 20 30 11 16 - - 0.0
20/06:00pm 1.7 -3.9 1.1 96 0.3 WSW 20 30 11 16 - - 0.0
20/05:30pm 3.1 -1.4 2.4 95 0.3 WSW 15 24 8 13 - - 0.0
20/05:00pm 4.4 0.9 3.5 94 0.4 W 11 24 6 13 - - 0.0
20/04:30pm 5.7 2.4 4.8 94 0.4 W 11 20 6 11 - - 0.0
20/04:00pm 5.1 1.7 4.2 94 0.4 W 11 22 6 12 - - 0.0
20/03:30pm 5.8 1.7 4.4 91 0.7 W 15 24 8 13 - - 0.0
20/03:00pm 8.2 3.8 5.0 80 1.6 W 17 28 9 15 - - 0.0
20/02:30pm 8.4 4.6 4.0 74 2.1 WNW 13 22 7 12 - - 0.0
20/02:00pm 9.2 5.5 2.5 63 3.2 WNW 11 24 6 13 - - 0.0
20/01:30pm 9.3 5.8 1.5 58 3.6 WNW 9 20 5 11 - - 0.0
20/01:00pm 8.9 4.8 0.1 54 3.9 W 11 20 6 11 - - 0.0
20/12:30pm 8.3 4.1 -1.0 52 4.0 WSW 11 20 6 11 - - 0.0
20/12:00pm 7.9 3.5 0.6 60 3.3 W 13 20 7 11 - - 0.0
20/11:30am 7.0 2.1 -0.4 59 3.2 W 15 24 8 13 - - 0.0
20/11:00am 7.3 2.4 1.8 68 2.5 W 17 32 9 17 - - 0.0
20/10:30am 5.9 1.0 5.0 94 0.4 W 20 30 11 16 - - 0.0
20/10:00am 4.0 -1.0 3.7 98 0.1 W 19 28 10 15 - - 0.0
20/09:30am 2.7 -2.7 2.4 98 0.1 W 20 32 11 17 - - 0.0
20/09:00am 1.5 -3.9 1.2 98 0.1 W 19 28 10 15 - - 0.0
20/08:30am 0.8 -4.7 0.5 98 0.1 W 19 28 10 15 - - 0.0
20/08:00am 0.5 -5.3 0.2 98 0.1 W 20 33 11 18 - - 0.0
20/07:30am 0.4 -5.4 0.1 98 0.1 W 20 33 11 18 - - 0.0
20/07:00am 0.3 -4.9 0.0 98 0.1 W 17 30 9 16 - - 0.0
20/06:30am 0.3 -4.5 0.0 98 0.1 W 15 24 8 13 - - 0.0
20/06:00am 0.3 -4.9 0.0 98 0.1 W 17 26 9 14 - - 0.0
20/05:30am 0.5 -4.7 0.2 98 0.1 WNW 17 28 9 15 - - 0.0
20/05:00am 0.7 -4.8 0.4 98 0.1 NW 19 32 10 17 - - 0.0
20/04:30am 0.3 -4.9 0.0 98 0.1 NNW 17 24 9 13 - - 0.0
20/04:00am 0.1 -4.4 -0.2 98 0.1 N 13 24 7 13 - - 0.0
20/03:30am 0.4 -4.0 0.1 98 0.1 N 13 22 7 12 - - 0.0
20/03:00am 0.3 -4.2 0.0 98 0.1 N 13 22 7 12 - - 0.0
20/02:30am 0.6 -4.2 0.3 98 0.1 N 15 20 8 11 - - 0.0
20/02:00am 1.0 -3.3 0.7 98 0.1 NNE 13 19 7 10 - - 0.0
20/01:30am 1.2 -3.1 0.9 98 0.1 NNE 13 19 7 10 - - 0.0
20/01:00am 1.4 -2.5 1.1 98 0.1 NE 11 17 6 9 - - 0.0
20/12:30am 1.5 -2.4 1.2 98 0.1 NE 11 19 6 10 - - 0.0
20/12:00am 1.9 -2.3 1.6 98 0.1 ENE 13 22 7 12 - - 0.0
 
Date/Time
EST
Temp
°C
App
Temp
°C
Dew
Point
Rel
Hum
%
Delta-T
°C
Wind Press
QNH
hPa
Press
MSL
hPa
Rain
since 9 am
mm
Dir
 
Spd
km/h
Gust
km/h
Spd
kts
Gust
kts
19/11:30pm 2.5 -1.6 2.2 98 0.1 NE 13 24 7 13 - - 0.0
19/11:00pm 2.9 -0.8 2.6 98 0.1 ENE 11 17 6 9 - - 0.0
19/10:30pm 3.0 -0.6 2.7 98 0.1 ENE 11 20 6 11 - - 0.0
19/10:00pm 3.1 -0.9 2.8 98 0.1 ENE 13 22 7 12 - - 0.0
19/09:30pm 3.2 -0.8 2.9 98 0.1 ENE 13 20 7 11 - - 0.0
19/09:00pm 3.4 -0.6 3.1 98 0.1 ENE 13 20 7 11 - - 0.0
19/08:30pm 3.6 0.4 3.3 98 0.1 ENE 9 15 5 8 - - 0.0
19/08:00pm 3.4 0.8 3.1 98 0.1 E 6 11 3 6 - - 0.0
19/07:30pm 2.8 0.8 2.4 97 0.2 E 2 7 1 4 - - 0.0
19/07:00pm 2.9 0.1 2.3 96 0.3 SSE 6 9 3 5 - - 0.0
19/06:30pm 3.2 -0.1 2.5 95 0.3 S 9 13 5 7 - - 0.0
19/06:00pm 4.5 2.0 3.6 94 0.4 SSW 6 11 3 6 - - 0.0
19/05:30pm 6.0 3.8 5.1 94 0.4 SW 6 9 3 5 - - 0.0
19/05:00pm 6.9 4.7 5.4 90 0.7 W 6 11 3 6 - - 0.0
19/04:30pm 8.1 5.7 4.5 78 1.8 W 6 11 3 6 - - 0.0
19/04:00pm 8.3 5.8 4.7 78 1.8 WSW 7 15 4 8 - - 0.0
19/03:30pm 8.5 5.7 5.1 79 1.7 W 9 17 5 9 - - 0.0
19/03:00pm 7.4 4.4 4.2 80 1.5 W 9 19 5 10 - - 0.0
19/02:30pm 9.0 6.4 4.2 72 2.3 WNW 7 19 4 10 - - 0.0
19/02:00pm 9.4 6.6 3.4 66 2.9 WNW 7 19 4 10 - - 0.0
19/01:30pm 8.8 5.1 2.6 65 2.9 W 11 20 6 11 - - 0.0
19/01:00pm 8.7 5.5 2.9 67 2.7 WNW 9 19 5 10 - - 0.0
19/12:30pm 8.1 5.1 2.1 66 2.8 W 7 15 4 8 - - 0.0
19/12:00pm 7.1 3.8 0.1 61 3.1 WNW 7 13 4 7 - - 0.0
19/11:30am 6.4 2.9 -1.2 58 3.2 W 7 19 4 10 - - 0.0
19/11:00am 6.4 3.0 -1.7 56 3.4 WSW 6 13 3 7 - - 0.0
19/10:30am 6.1 2.9 -3.3 51 3.8 WSW 4 11 2 6 - - 0.0
19/10:00am 5.4 2.5 -4.2 50 3.7 SSW 2 7 1 4 - - 0.0
19/09:30am 4.5 1.0 -6.1 46 3.9 WSW 4 6 2 3 - - 0.0
19/09:00am 3.8 0.1 -4.2 56 3.0 SW 6 9 3 5 - - 0.0
19/08:30am 2.8 -0.6 -2.3 69 2.0 SW 6 11 3 6 - - 0.0
19/08:00am 1.6 -1.6 0.6 93 0.4 WSW 7 11 4 6 - - 0.0
19/07:30am 0.6 -3.8 -2.8 78 1.3 SW 11 15 6 8 - - 0.0
19/07:00am 0.6 -4.6 -6.3 60 2.4 SW 13 17 7 9 - - 0.0
19/06:30am 0.5 -4.4 -0.2 95 0.3 SW 15 17 8 9 - - 0.0
19/06:00am 0.1 -4.4 -0.2 98 0.1 SW 13 17 7 9 - - 0.0
19/05:30am -0.3 -4.5 -0.6 98 0.1 SW 11 15 6 8 - - 0.0
19/05:00am 0.7 -2.4 0.4 98 0.1 S 6 7 3 4 - - 0.0
19/04:30am 0.8 -2.8 0.5 98 0.1 SSW 9 13 5 7 - - 0.0
19/04:00am 1.6 -1.9 1.3 98 0.1 S 9 15 5 8 - - 0.0
19/03:30am 1.2 -2.7 0.9 98 0.1 SSW 11 17 6 9 - - 0.0
19/03:00am 1.6 -2.7 1.3 98 0.1 SW 13 19 7 10 - - 0.0
19/02:30am 1.2 -2.7 0.9 98 0.1 SW 11 17 6 9 - - 0.0
19/02:00am 1.4 -2.1 1.1 98 0.1 WSW 9 17 5 9 - - 0.0
19/01:30am 1.9 -1.5 1.6 98 0.1 WSW 9 19 5 10 - - 0.0
19/01:00am 2.6 -1.9 2.3 98 0.1 WSW 15 30 8 16 - - 0.0
19/12:30am 3.0 -2.2 2.7 98 0.1 WSW 19 32 10 17 - - 0.0
19/12:00am 3.4 -1.7 3.1 98 0.1 WSW 19 33 10 18 - - 0.0
 
Date/Time
EST
Temp
°C
App
Temp
°C
Dew
Point
Rel
Hum
%
Delta-T
°C
Wind Press
QNH
hPa
Press
MSL
hPa
Rain
since 9 am
mm
Dir
 
Spd
km/h
Gust
km/h
Spd
kts
Gust
kts
18/11:30pm 3.5 -2.1 3.2 98 0.1 SW 22 37 12 20 - - 0.0
18/11:00pm 4.0 -1.9 3.9 99 0.0 SW 24 44 13 24 - - 0.0
18/10:30pm 4.2 -1.3 4.1 99 0.0 WSW 22 43 12 23 - - 0.0
18/10:00pm 4.7 -0.3 4.6 99 0.0 WSW 20 43 11 23 - - 0.0
18/09:30pm 5.2 0.5 5.1 99 0.0 WSW 19 39 10 21 - - 0.0
18/09:00pm 5.3 0.6 5.2 99 0.0 WSW 19 39 10 21 - - 0.0

Other Formats:

Comma delimited format used in spreadsheet applications
http://www.bom.gov.au/fwo/IDN60801/IDN60801.95925.axf

JavaScript Object Notation format (JSON) in row-major order
http://www.bom.gov.au/fwo/IDN60801/IDN60801.95925.json